Time;durP1;ratioP1;P1;durP2;ratioP2;P2;SDS_P1;SDS_P2;PMS_P1;PMS_P2;Temp;Humidity;BMP_temperature;BMP_pressure;BME280_temperature;BME280_humidity;BME280_pressure;Samples;Min_cycle;Max_cycle;Signal;HPM_P1;HPM_P2
2022/01/22 00:01:51;;;;;;;4.35;1.67;;;-0.20;93.00;;;;;;4997211;28;20037;-66
2022/01/22 00:04:17;;;;;;;2.95;1.95;;;-0.20;93.00;;;;;;5013910;28;20115;-66
2022/01/22 00:06:43;;;;;;;5.45;1.60;;;-0.10;92.90;;;;;;4999214;28;20484;-67
2022/01/22 00:09:09;;;;;;;4.00;1.63;;;-0.10;92.70;;;;;;5000689;28;20034;-66
2022/01/22 00:11:39;;;;;;;7.03;2.33;;;-0.20;92.70;;;;;;5001016;28;20057;-67
2022/01/22 00:14:23;;;;;;;3.25;1.58;;;-0.20;92.70;;;;;;4999761;28;20022;-66
2022/01/22 00:16:59;;;;;;;1.88;1.60;;;-0.20;92.80;;;;;;4998617;28;20026;-67
2022/01/22 00:19:26;;;;;;;3.80;2.20;;;-0.20;92.60;;;;;;4998732;28;20034;-67
2022/01/22 00:21:52;;;;;;;5.25;1.73;;;-0.20;92.60;;;;;;5001279;28;20026;-66
2022/01/22 00:24:18;;;;;;;2.42;1.52;;;-0.20;92.50;;;;;;5000668;28;20038;-66
2022/01/22 00:26:45;;;;;;;4.55;1.75;;;-0.30;92.70;;;;;;4997673;28;20048;-66
2022/01/22 00:29:12;;;;;;;7.35;1.63;;;-0.30;92.50;;;;;;4995234;28;20061;-67
2022/01/22 00:31:39;;;;;;;2.97;1.60;;;-0.30;92.40;;;;;;4997566;28;20488;-66
2022/01/22 00:34:06;;;;;;;3.55;1.60;;;-0.30;92.90;;;;;;4996452;28;20026;-66
2022/01/22 00:36:33;;;;;;;8.52;2.25;;;-0.20;92.60;;;;;;4999975;28;20473;-67
2022/01/22 00:38:59;;;;;;;6.28;1.70;;;-0.20;92.40;;;;;;4997350;28;20030;-64
2022/01/22 00:41:25;;;;;;;3.53;1.88;;;-0.30;92.70;;;;;;5012340;28;20057;-67
2022/01/22 00:43:51;;;;;;;3.40;1.83;;;-0.30;92.70;;;;;;4996953;28;20057;-67
2022/01/22 00:46:17;;;;;;;3.63;1.85;;;-0.30;92.70;;;;;;4994782;28;20058;-67
2022/01/22 00:48:43;;;;;;;3.72;2.17;;;-0.30;92.90;;;;;;4999353;28;20037;-68
2022/01/22 00:51:09;;;;;;;5.32;2.38;;;-0.30;92.60;;;;;;5003847;28;20270;-67
2022/01/22 00:53:34;;;;;;;3.47;1.65;;;-0.40;92.80;;;;;;4999544;28;20054;-66
2022/01/22 00:56:00;;;;;;;3.63;1.80;;;-0.30;92.80;;;;;;5000964;28;20108;-66
2022/01/22 00:58:26;;;;;;;4.10;1.95;;;-0.30;92.70;;;;;;5004459;28;20766;-65
2022/01/22 01:00:51;;;;;;;4.65;2.10;;;-0.40;92.60;;;;;;5004165;28;20073;-66
2022/01/22 01:03:17;;;;;;;4.40;1.90;;;-0.40;92.40;;;;;;5006142;28;20038;-67
2022/01/22 01:05:43;;;;;;;4.80;2.10;;;-0.30;92.30;;;;;;5003320;28;20030;-67
2022/01/22 01:08:08;;;;;;;4.40;1.50;;;-0.30;92.40;;;;;;5004499;28;20018;-67
2022/01/22 01:10:34;;;;;;;5.18;1.50;;;-0.30;92.20;;;;;;5002279;28;20042;-67
2022/01/22 01:13:00;;;;;;;4.07;1.42;;;-0.30;92.20;;;;;;5002852;28;20527;-68
2022/01/22 01:34:38;;;;;;;3.22;1.30;;;-0.30;92.40;;;;;;5001875;28;20041;-68
2022/01/22 01:37:04;;;;;;;2.63;1.48;;;-0.20;92.20;;;;;;5003399;28;20037;-68
2022/01/22 01:39:33;;;;;;;3.83;1.40;;;-0.20;91.90;;;;;;5003132;28;20026;-68
2022/01/22 01:44:56;;;;;;;2.90;1.33;;;-0.10;91.60;;;;;;4984741;28;20038;-67
2022/01/22 01:47:21;;;;;;;7.00;1.77;;;0.00;91.60;;;;;;4999861;28;20602;-70
2022/01/22 01:49:47;;;;;;;4.68;1.90;;;0.00;91.60;;;;;;5003771;28;20027;-68
2022/01/22 01:52:15;;;;;;;7.60;1.60;;;0.00;91.90;;;;;;5001143;28;20038;-69
2022/01/22 01:57:31;;;;;;;2.80;1.13;;;0.00;91.90;;;;;;5004092;28;20100;-68
2022/01/22 01:59:59;;;;;;;3.45;1.23;;;0.00;92.10;;;;;;5018639;28;20490;-70
2022/01/22 02:02:27;;;;;;;2.35;1.20;;;0.00;91.90;;;;;;5006225;28;20022;-68
2022/01/22 02:04:53;;;;;;;4.00;1.30;;;0.00;91.90;;;;;;5002689;28;20121;-69
2022/01/22 02:07:18;;;;;;;5.18;1.33;;;0.00;92.10;;;;;;5005481;28;20184;-69
2022/01/22 02:09:44;;;;;;;1.95;1.20;;;0.10;92.00;;;;;;5003198;28;20034;-69
2022/01/22 02:25:23;;;;;;;2.53;1.33;;;0.10;92.30;;;;;;5004206;28;20124;-69
2022/01/22 02:27:49;;;;;;;5.97;1.73;;;0.20;92.50;;;;;;5005617;28;20610;-69
2022/01/22 02:30:20;;;;;;;3.25;1.40;;;0.20;92.20;;;;;;5002124;28;20084;-69
2022/01/22 02:36:19;;;;;;;3.35;1.88;;;0.20;92.50;;;;;;4926840;29;20124;-69
2022/01/22 02:41:23;;;;;;;5.88;1.20;;;0.30;92.60;;;;;;5002060;28;20112;-68
2022/01/22 02:43:48;;;;;;;2.92;1.75;;;0.30;92.50;;;;;;5005245;28;20026;-68
2022/01/22 02:46:23;;;;;;;2.17;1.50;;;0.30;92.40;;;;;;5003234;28;20037;-68
2022/01/22 02:48:50;;;;;;;3.72;1.40;;;0.30;93.00;;;;;;5001948;28;20033;-69
2022/01/22 02:51:16;;;;;;;3.22;1.48;;;0.30;92.80;;;;;;5001000;28;20124;-69
2022/01/22 02:53:41;;;;;;;2.72;1.45;;;0.30;92.50;;;;;;5003010;28;20046;-69
2022/01/22 02:56:07;;;;;;;3.38;1.33;;;0.20;92.80;;;;;;5004512;28;20029;-69
2022/01/22 02:58:33;;;;;;;4.68;1.33;;;0.20;92.80;;;;;;5002956;28;20068;-69
2022/01/22 03:00:59;;;;;;;2.63;1.15;;;0.10;93.00;;;;;;4999977;28;20121;-70
2022/01/22 03:03:25;;;;;;;3.40;1.58;;;0.10;93.10;;;;;;5002959;28;20033;-70
2022/01/22 03:05:51;;;;;;;2.28;1.17;;;0.10;93.20;;;;;;5002678;28;20030;-69
2022/01/22 03:08:16;;;;;;;3.28;1.40;;;0.10;93.20;;;;;;4999756;28;20480;-68
2022/01/22 03:10:50;;;;;;;2.22;1.20;;;0.10;93.30;;;;;;5001708;28;20041;-69
2022/01/22 03:14:01;;;;;;;2.20;1.38;;;0.20;93.30;;;;;;5000445;28;20644;-69
2022/01/22 03:21:38;;;;;;;1.40;1.00;;;0.20;93.80;;;;;;4983744;28;20054;-68
2022/01/22 03:29:43;;;;;;;3.03;1.38;;;0.20;95.20;;;;;;5000650;28;20045;-70
2022/01/22 03:32:12;;;;;;;3.00;1.33;;;0.20;95.50;;;;;;5003033;28;20033;-69
2022/01/22 03:34:43;;;;;;;4.47;1.40;;;0.20;96.10;;;;;;5003989;28;20022;-69
2022/01/22 03:37:09;;;;;;;;;;;0.20;96.60;;;;;;4996028;28;20492;-69
2022/01/22 03:39:35;;;;;;;1.83;1.17;;;0.20;97.00;;;;;;5002403;28;19993;-70
2022/01/22 03:42:01;;;;;;;2.53;1.38;;;0.20;97.50;;;;;;5004517;28;20672;-69
2022/01/22 03:44:27;;;;;;;2.13;1.20;;;0.20;98.00;;;;;;5000643;28;20451;-70
2022/01/22 03:46:52;;;;;;;4.43;1.50;;;0.20;97.90;;;;;;5001596;28;20065;-69
2022/01/22 03:49:18;;;;;;;2.13;1.00;;;0.20;98.00;;;;;;5001540;28;20061;-69
2022/01/22 03:51:44;;;;;;;5.43;1.48;;;0.20;97.90;;;;;;5001266;28;20048;-67
2022/01/22 03:54:10;;;;;;;6.35;1.60;;;0.20;98.10;;;;;;5000882;28;20054;-68
2022/01/22 03:56:38;;;;;;;3.63;1.25;;;0.20;98.60;;;;;;5001053;28;20448;-69
2022/01/22 03:59:04;;;;;;;3.00;1.20;;;0.20;98.80;;;;;;5002156;28;20029;-69
2022/01/22 04:04:12;;;;;;;2.45;1.25;;;0.30;99.60;;;;;;5001541;28;20526;-69
2022/01/22 04:09:15;;;;;;;2.58;1.02;;;0.20;99.90;;;;;;5000578;28;20512;-69
2022/01/22 04:11:44;;;;;;;3.20;1.33;;;0.20;99.90;;;;;;4999154;28;20576;-68
2022/01/22 04:14:21;;;;;;;3.92;1.33;;;0.20;99.90;;;;;;5000171;28;20040;-68
2022/01/22 04:25:04;;;;;;;1.25;0.80;;;0.30;99.90;;;;;;5000567;28;20049;-70
2022/01/22 04:27:29;;;;;;;0.88;0.82;;;0.30;99.90;;;;;;5000752;28;20484;-69
2022/01/22 04:29:58;;;;;;;3.05;1.30;;;0.30;99.90;;;;;;4998798;28;20034;-69
2022/01/22 04:32:28;;;;;;;1.33;0.93;;;0.30;99.90;;;;;;5001609;28;20030;-68
2022/01/22 04:34:55;;;;;;;2.33;1.20;;;0.30;99.90;;;;;;4999734;28;20062;-68
2022/01/22 04:37:22;;;;;;;2.85;1.05;;;0.20;99.90;;;;;;5003862;28;20026;-68
2022/01/22 04:39:48;;;;;;;2.97;0.70;;;0.20;99.90;;;;;;5004574;28;20026;-68
2022/01/22 04:42:15;;;;;;;2.25;0.80;;;0.20;99.90;;;;;;4999968;28;20041;-68
2022/01/22 04:47:45;;;;;;;1.88;0.80;;;0.20;99.90;;;;;;4999376;28;20061;-68
2022/01/22 04:55:30;;;;;;;3.20;1.13;;;0.20;99.90;;;;;;5003459;28;20033;-67
2022/01/22 04:57:56;;;;;;;1.13;0.68;;;0.30;99.90;;;;;;5002275;28;20542;-67
2022/01/22 05:00:22;;;;;;;1.00;0.57;;;0.30;99.90;;;;;;5002028;28;20027;-67
2022/01/22 05:02:48;;;;;;;0.77;0.57;;;0.40;99.90;;;;;;5002261;28;20041;-67
2022/01/22 05:05:14;;;;;;;1.40;0.70;;;0.40;99.90;;;;;;5001465;28;20014;-66
2022/01/22 05:07:40;;;;;;;0.82;0.60;;;0.40;99.90;;;;;;4997801;28;20032;-66
2022/01/22 05:10:08;;;;;;;1.13;0.90;;;0.50;99.90;;;;;;5000997;28;20030;-67
2022/01/22 05:12:34;;;;;;;1.48;0.70;;;0.60;99.90;;;;;;5001200;28;20032;-67
2022/01/22 05:15:00;;;;;;;1.42;0.52;;;0.50;99.90;;;;;;5003127;28;20053;-67
2022/01/22 05:17:25;;;;;;;0.90;0.40;;;0.50;99.90;;;;;;5000482;28;20041;-67
2022/01/22 05:20:02;;;;;;;0.98;0.40;;;0.50;99.90;;;;;;4999144;28;20045;-67
2022/01/22 05:25:01;;;;;;;3.15;1.58;;;0.50;99.90;;;;;;5004885;28;20802;-67
2022/01/22 05:33:27;;;;;;;3.30;1.88;;;0.60;99.90;;;;;;4979300;28;20046;-67
2022/01/22 05:38:22;;;;;;;4.13;2.45;;;0.60;99.90;;;;;;5001392;28;20041;-67
2022/01/22 05:40:48;;;;;;;5.45;2.55;;;0.70;99.90;;;;;;5002708;28;20034;-67
2022/01/22 05:43:13;;;;;;;6.07;3.15;;;0.70;99.90;;;;;;5001925;28;20527;-66
2022/01/22 05:45:40;;;;;;;5.07;2.67;;;0.80;99.90;;;;;;5004745;28;20400;-67
2022/01/22 05:48:06;;;;;;;14.57;7.28;;;0.80;99.90;;;;;;5004454;28;20033;-67
2022/01/22 05:50:47;;;;;;;6.32;3.42;;;0.80;99.90;;;;;;5009016;28;20033;-67
2022/01/22 06:01:07;;;;;;;3.60;2.53;;;0.90;99.90;;;;;;5004429;28;20048;-67
2022/01/22 06:03:32;;;;;;;4.18;2.28;;;0.90;99.90;;;;;;5004401;28;20034;-67
2022/01/22 06:05:58;;;;;;;4.65;2.15;;;0.90;99.90;;;;;;5004875;28;20496;-67
2022/01/22 06:08:29;;;;;;;2.65;1.70;;;0.70;99.90;;;;;;5005005;28;20067;-66
2022/01/22 06:10:56;;;;;;;2.00;1.52;;;0.70;99.90;;;;;;5004742;28;20061;-67
2022/01/22 06:13:29;;;;;;;3.22;2.40;;;0.70;99.90;;;;;;5003364;28;20412;-67
2022/01/22 06:15:55;;;;;;;4.05;2.20;;;0.80;99.90;;;;;;5004141;28;20041;-67
2022/01/22 06:18:20;;;;;;;7.72;4.30;;;0.80;99.90;;;;;;5004117;28;20041;-67
2022/01/22 06:20:46;;;;;;;4.60;2.40;;;0.80;99.90;;;;;;5003576;28;20045;-67
2022/01/22 06:23:12;;;;;;;3.38;1.85;;;0.70;99.80;;;;;;5004080;28;20161;-67
2022/01/22 06:25:38;;;;;;;3.30;1.40;;;0.70;99.50;;;;;;5003281;28;20034;-67
2022/01/22 06:28:04;;;;;;;2.00;0.93;;;0.60;99.30;;;;;;5004874;28;20123;-66
2022/01/22 06:30:30;;;;;;;2.38;0.98;;;0.60;99.30;;;;;;5004614;28;20424;-66
2022/01/22 06:32:55;;;;;;;3.15;1.48;;;0.60;99.20;;;;;;5002654;28;20107;-66
2022/01/22 06:35:21;;;;;;;2.42;1.52;;;0.60;99.10;;;;;;5001425;28;20091;-67
2022/01/22 06:37:47;;;;;;;2.33;1.50;;;0.60;99.00;;;;;;5004399;28;20113;-67
2022/01/22 06:42:41;;;;;;;1.52;1.30;;;0.60;98.40;;;;;;5002706;28;20465;-67
2022/01/22 06:45:08;;;;;;;3.95;1.20;;;0.50;98.50;;;;;;5004075;28;20034;-67
2022/01/22 06:47:35;;;;;;;5.10;0.93;;;0.50;98.60;;;;;;5003608;28;20018;-67
2022/01/22 06:50:01;;;;;;;2.83;1.10;;;0.50;98.40;;;;;;5003854;28;20466;-68
2022/01/22 06:52:28;;;;;;;1.90;1.10;;;0.50;98.20;;;;;;5003579;28;20592;-67
2022/01/22 06:54:54;;;;;;;0.80;0.77;;;0.40;97.80;;;;;;5004037;28;20124;-67
2022/01/22 06:57:19;;;;;;;1.90;0.90;;;0.20;97.30;;;;;;5003361;28;20172;-68
2022/01/22 06:59:45;;;;;;;0.90;0.77;;;0.20;97.40;;;;;;5006573;28;20533;-69
2022/01/22 07:02:11;;;;;;;1.52;0.77;;;0.30;97.20;;;;;;5001453;28;20036;-68
2022/01/22 07:04:37;;;;;;;0.57;0.50;;;0.30;96.90;;;;;;5004830;28;20040;-68
2022/01/22 07:07:04;;;;;;;0.50;0.50;;;0.40;96.70;;;;;;4999273;28;20034;-67
2022/01/22 07:09:30;;;;;;;1.25;0.45;;;0.40;96.30;;;;;;5003332;28;20033;-68
2022/01/22 07:11:56;;;;;;;1.48;0.63;;;0.40;96.00;;;;;;5001316;28;20038;-68
2022/01/22 07:14:22;;;;;;;2.33;0.85;;;0.50;95.90;;;;;;5004219;28;20405;-69
2022/01/22 07:16:47;;;;;;;1.70;0.43;;;0.50;95.70;;;;;;5001682;28;20567;-69
2022/01/22 07:19:18;;;;;;;1.08;0.63;;;0.50;95.80;;;;;;5003424;28;20041;-72
2022/01/22 07:21:46;;;;;;;1.83;1.52;;;0.50;95.60;;;;;;5002035;28;20546;-71
2022/01/22 07:24:26;;;;;;;2.30;1.05;;;0.60;95.40;;;;;;5003459;28;20056;-71
2022/01/22 07:26:54;;;;;;;8.30;5.88;;;0.60;95.20;;;;;;5003574;28;20038;-71
2022/01/22 07:29:21;;;;;;;10.00;6.40;;;0.70;95.10;;;;;;5003505;28;20033;-70
2022/01/22 07:31:47;;;;;;;13.85;8.73;;;0.80;94.90;;;;;;5003816;28;20564;-71
2022/01/22 07:34:13;;;;;;;6.13;4.18;;;0.80;94.90;;;;;;5001104;28;20384;-71
2022/01/22 07:36:39;;;;;;;3.60;2.38;;;0.90;94.40;;;;;;5000491;28;20049;-70
2022/01/22 07:39:05;;;;;;;2.88;2.30;;;1.10;94.40;;;;;;4999139;28;20025;-70
2022/01/22 07:41:30;;;;;;;1.77;1.30;;;1.20;94.50;;;;;;5001873;28;20033;-70
2022/01/22 07:43:56;;;;;;;1.75;1.10;;;1.40;94.10;;;;;;5001639;28;20084;-67
2022/01/22 07:46:22;;;;;;;2.83;2.50;;;1.50;93.60;;;;;;4999863;28;20160;-71
2022/01/22 07:48:48;;;;;;;5.10;2.88;;;1.60;93.80;;;;;;5003268;28;20056;-70
2022/01/22 07:51:15;;;;;;;1.40;0.80;;;1.70;93.80;;;;;;5003576;28;20443;-70
2022/01/22 07:53:44;;;;;;;3.53;1.40;;;1.90;93.80;;;;;;5001501;28;20110;-69
2022/01/22 07:56:09;;;;;;;3.33;1.85;;;2.00;93.70;;;;;;5003576;28;20223;-70
2022/01/22 07:58:35;;;;;;;1.35;0.90;;;2.10;93.20;;;;;;4999934;28;20113;-73
2022/01/22 08:01:01;;;;;;;2.83;1.15;;;2.10;92.80;;;;;;5001194;28;20037;-73
2022/01/22 08:03:28;;;;;;;1.92;1.10;;;2.20;93.00;;;;;;4999901;28;20061;-73
2022/01/22 08:05:54;;;;;;;2.47;1.83;;;2.20;92.50;;;;;;5002021;28;20026;-73
2022/01/22 08:08:19;;;;;;;2.70;1.67;;;2.40;92.60;;;;;;5000556;28;20495;-71
2022/01/22 08:10:45;;;;;;;2.65;1.83;;;2.50;91.50;;;;;;4996977;28;20559;-75
2022/01/22 08:13:11;;;;;;;1.98;1.30;;;2.40;91.20;;;;;;5000246;28;20665;-74
2022/01/22 08:15:37;;;;;;;2.88;0.90;;;2.40;90.90;;;;;;4999283;28;20038;-75
2022/01/22 08:18:04;;;;;;;1.30;0.85;;;2.50;90.90;;;;;;5000524;28;20037;-71
2022/01/22 08:20:30;;;;;;;2.20;1.17;;;2.40;90.60;;;;;;5001497;28;20031;-70
2022/01/22 08:22:55;;;;;;;2.08;1.30;;;2.40;90.50;;;;;;5000818;28;20034;-69
2022/01/22 08:25:22;;;;;;;2.40;1.48;;;2.40;90.50;;;;;;5000186;28;20029;-72
2022/01/22 08:30:34;;;;;;;1.50;0.90;;;2.50;90.70;;;;;;5001563;28;20045;-66
2022/01/22 08:38:17;;;;;;;1.55;0.82;;;2.60;90.20;;;;;;5000228;28;20046;-66
2022/01/22 08:40:42;;;;;;;2.60;0.90;;;2.60;90.00;;;;;;5000997;28;20022;-66
2022/01/22 08:43:08;;;;;;;1.67;0.98;;;2.50;89.70;;;;;;5000738;28;20042;-67
2022/01/22 08:45:36;;;;;;;2.08;1.00;;;2.50;90.40;;;;;;4997950;28;20034;-66
2022/01/22 08:48:02;;;;;;;1.80;0.82;;;2.50;90.20;;;;;;5001892;28;20050;-67
2022/01/22 08:50:28;;;;;;;1.55;0.88;;;2.50;89.40;;;;;;5001854;28;20025;-66
2022/01/22 08:52:53;;;;;;;2.65;1.50;;;2.50;88.90;;;;;;5000491;28;20621;-66
2022/01/22 08:55:19;;;;;;;1.48;0.80;;;2.50;88.50;;;;;;5001574;28;20027;-66
2022/01/22 08:57:49;;;;;;;1.92;1.10;;;2.50;89.50;;;;;;5001487;28;20025;-67
2022/01/22 09:00:17;;;;;;;2.72;1.73;;;2.60;89.50;;;;;;5000427;28;20057;-67
2022/01/22 09:02:46;;;;;;;4.28;1.65;;;2.60;89.10;;;;;;5000903;28;20021;-66
2022/01/22 09:05:16;;;;;;;1.60;1.23;;;2.70;88.80;;;;;;5001292;28;20675;-67
2022/01/22 09:07:41;;;;;;;2.03;1.10;;;2.80;87.50;;;;;;5000199;28;20034;-67
2022/01/22 09:10:07;;;;;;;1.85;1.27;;;2.90;86.40;;;;;;4999682;28;20101;-66
2022/01/22 09:12:33;;;;;;;2.45;0.95;;;2.90;87.10;;;;;;4998022;28;20128;-66
2022/01/22 09:14:59;;;;;;;1.40;0.77;;;2.90;84.60;;;;;;5001700;28;20038;-67
2022/01/22 09:17:24;;;;;;;2.55;0.88;;;2.70;83.80;;;;;;4997007;28;20041;-72
2022/01/22 09:19:56;;;;;;;13.55;8.68;;;2.60;84.60;;;;;;4998248;28;20033;-72
2022/01/22 09:22:22;;;;;;;3.45;2.72;;;2.50;85.00;;;;;;4996716;28;20053;-72
2022/01/22 09:24:49;;;;;;;3.72;2.15;;;2.60;85.90;;;;;;4998991;28;20250;-71
2022/01/22 09:27:16;;;;;;;6.38;3.70;;;2.70;85.20;;;;;;5001149;28;20022;-72
2022/01/22 09:29:42;;;;;;;1.75;1.30;;;2.70;80.20;;;;;;5001711;28;20034;-73
2022/01/22 09:32:07;;;;;;;8.25;4.43;;;2.70;79.80;;;;;;5000159;28;20045;-73
2022/01/22 09:34:33;;;;;;;6.70;3.90;;;2.60;80.90;;;;;;5002750;28;20972;-73
2022/01/22 09:36:59;;;;;;;6.72;3.72;;;2.60;81.90;;;;;;4999959;28;20022;-71
2022/01/22 09:39:25;;;;;;;12.38;7.57;;;2.60;82.30;;;;;;4997829;28;20543;-73
2022/01/22 09:41:50;;;;;;;19.30;10.23;;;2.70;82.40;;;;;;5000589;28;20061;-73
2022/01/22 09:44:16;;;;;;;16.55;11.05;;;2.80;81.80;;;;;;5002093;28;20038;-73
2022/01/22 09:46:45;;;;;;;10.98;7.45;;;2.80;79.80;;;;;;5002146;28;20038;-71
2022/01/22 09:49:11;;;;;;;29.85;14.57;;;2.60;78.70;;;;;;5001899;28;20018;-73
2022/01/22 09:51:38;;;;;;;37.55;19.63;;;2.60;80.30;;;;;;5000943;28;20034;-72
2022/01/22 09:54:06;;;;;;;34.05;19.10;;;2.50;81.70;;;;;;5003747;28;20116;-73
2022/01/22 09:56:32;;;;;;;4.13;2.47;;;2.50;81.70;;;;;;5004696;28;20032;-73
2022/01/22 09:58:59;;;;;;;10.23;6.00;;;2.40;82.20;;;;;;5003401;28;20029;-75
2022/01/22 10:01:31;;;;;;;26.20;18.50;;;2.30;82.00;;;;;;5000191;28;20124;-73
2022/01/22 10:03:59;;;;;;;2.28;1.30;;;2.40;82.00;;;;;;4998656;28;21263;-73
2022/01/22 10:06:28;;;;;;;4.38;2.30;;;2.40;81.00;;;;;;5004449;28;20022;-73
2022/01/22 10:09:14;;;;;;;4.28;2.67;;;2.40;82.70;;;;;;5003814;28;20044;-74
2022/01/22 10:11:41;;;;;;;1.27;0.88;;;2.40;82.50;;;;;;5003117;28;20072;-72
2022/01/22 10:14:08;;;;;;;1.55;0.80;;;2.40;81.10;;;;;;5004143;28;20723;-74
2022/01/22 10:16:38;;;;;;;1.80;1.23;;;2.50;80.90;;;;;;4999374;28;20022;-74
2022/01/22 10:19:22;;;;;;;1.95;1.42;;;2.50;81.80;;;;;;4998177;28;20036;-73
2022/01/22 10:21:49;;;;;;;1.60;1.15;;;2.50;81.00;;;;;;4998792;28;21125;-73
2022/01/22 10:27:37;;;;;;;2.50;2.00;;;2.40;77.50;;;;;;4999658;28;20041;-73
2022/01/22 10:30:11;;;;;;;1.42;1.05;;;2.50;78.20;;;;;;5000463;28;20045;-72
2022/01/22 10:32:58;;;;;;;2.33;1.30;;;2.50;77.20;;;;;;4997801;28;20033;-72
2022/01/22 10:35:27;;;;;;;4.07;1.92;;;2.50;77.40;;;;;;4997885;28;20037;-73
2022/01/22 10:37:57;;;;;;;4.53;1.65;;;2.60;78.00;;;;;;4997963;28;20046;-71
2022/01/22 10:40:32;;;;;;;2.72;1.40;;;2.60;77.70;;;;;;4998948;28;20035;-72
2022/01/22 10:43:16;;;;;;;1.48;0.55;;;2.60;78.10;;;;;;4998529;28;20645;-73
2022/01/22 10:45:56;;;;;;;3.47;1.67;;;2.50;78.00;;;;;;4999069;28;20044;-72
2022/01/22 10:48:21;;;;;;;1.77;1.05;;;2.40;78.00;;;;;;4997530;28;20025;-73
2022/01/22 10:51:03;;;;;;;1.30;1.10;;;2.30;80.00;;;;;;4996989;28;20412;-71
2022/01/22 10:53:48;;;;;;;2.10;0.88;;;2.30;81.50;;;;;;4998768;28;20809;-74
2022/01/22 10:56:17;;;;;;;2.95;1.63;;;2.30;80.60;;;;;;4993957;28;20030;-71
2022/01/22 10:59:03;;;;;;;2.42;1.20;;;2.40;80.30;;;;;;4998031;28;20152;-72
2022/01/22 11:01:29;;;;;;;2.88;1.35;;;2.40;80.80;;;;;;4994048;28;20057;-71
2022/01/22 11:04:07;;;;;;;2.00;1.30;;;2.40;80.40;;;;;;4998337;28;20584;-72
2022/01/22 11:06:34;;;;;;;1.38;0.98;;;2.40;81.40;;;;;;4993421;28;20037;-71
2022/01/22 11:09:07;;;;;;;4.13;2.95;;;2.40;80.60;;;;;;4997058;28;20400;-71
2022/01/22 11:11:38;;;;;;;1.25;1.00;;;2.50;81.30;;;;;;4994353;28;20026;-72
2022/01/22 11:14:06;;;;;;;1.38;0.60;;;2.50;79.50;;;;;;4997768;28;20063;-71
2022/01/22 11:16:32;;;;;;;2.17;1.52;;;2.50;78.60;;;;;;4995600;28;20115;-72
2022/01/22 11:18:59;;;;;;;1.30;0.90;;;2.50;78.00;;;;;;4995654;28;20040;-72
2022/01/22 11:21:25;;;;;;;1.60;0.88;;;2.50;77.70;;;;;;4995490;28;20030;-72
2022/01/22 11:23:51;;;;;;;0.85;0.70;;;2.50;75.50;;;;;;4995583;28;20720;-72
2022/01/22 11:26:18;;;;;;;2.05;1.30;;;2.50;76.30;;;;;;5000046;28;20176;-71
2022/01/22 11:28:45;;;;;;;1.20;1.00;;;2.60;75.70;;;;;;4992507;28;20180;-74
2022/01/22 11:31:15;;;;;;;1.23;0.70;;;2.60;74.60;;;;;;4998889;28;20038;-74
2022/01/22 11:33:43;;;;;;;2.70;0.80;;;2.60;73.30;;;;;;4997849;28;20032;-73
2022/01/22 11:36:25;;;;;;;1.15;0.80;;;2.60;75.40;;;;;;4995166;28;20029;-72
2022/01/22 11:38:59;;;;;;;0.90;0.70;;;2.70;74.30;;;;;;4998439;28;20030;-74
2022/01/22 11:41:27;;;;;;;1.45;0.65;;;2.70;73.40;;;;;;4998438;28;20121;-71
2022/01/22 11:46:44;;;;;;;3.40;2.92;;;2.70;69.10;;;;;;4995229;28;20472;-73
2022/01/22 11:49:10;;;;;;;1.95;0.95;;;2.70;70.40;;;;;;4995822;28;20664;-74
2022/01/22 11:51:36;;;;;;;5.50;3.78;;;2.70;68.20;;;;;;4996839;28;20034;-72
2022/01/22 11:54:02;;;;;;;4.03;3.63;;;2.80;69.80;;;;;;4995886;28;20064;-74
2022/01/22 11:56:29;;;;;;;1.20;1.00;;;2.80;68.20;;;;;;4998170;28;20034;-71
2022/01/22 11:58:59;;;;;;;1.05;0.80;;;2.80;71.60;;;;;;4995891;28;20034;-72
2022/01/22 12:01:50;;;;;;;1.98;0.82;;;2.90;71.20;;;;;;4997675;28;20030;-71
2022/01/22 12:04:17;;;;;;;3.35;0.93;;;2.90;70.70;;;;;;4997256;28;20711;-73
2022/01/22 12:07:01;;;;;;;2.08;0.70;;;3.00;70.10;;;;;;4999803;28;20156;-72
2022/01/22 12:09:42;;;;;;;1.83;0.60;;;2.90;70.40;;;;;;4997469;28;20030;-72
2022/01/22 12:15:23;;;;;;;1.15;0.63;;;2.80;69.10;;;;;;5003524;28;20064;-72
2022/01/22 12:17:55;;;;;;;2.53;0.70;;;2.70;69.10;;;;;;5001842;28;20109;-72
2022/01/22 12:23:09;;;;;;;0.88;0.60;;;2.50;68.00;;;;;;4998969;28;20104;-72
2022/01/22 12:25:35;;;;;;;3.00;0.85;;;2.50;68.30;;;;;;4999608;28;20026;-72
2022/01/22 12:28:05;;;;;;;1.10;0.70;;;2.50;65.40;;;;;;5000092;28;20044;-73
2022/01/22 12:30:46;;;;;;;1.52;0.65;;;2.40;66.30;;;;;;5001451;28;20026;-73
2022/01/22 12:33:27;;;;;;;1.35;0.75;;;2.50;69.00;;;;;;4999889;28;20022;-73
2022/01/22 12:35:57;;;;;;;2.25;0.70;;;2.50;68.60;;;;;;5000868;28;20033;-74
2022/01/22 12:42:01;;;;;;;1.10;0.52;;;2.60;69.70;;;;;;4998868;28;21179;-74
2022/01/22 12:44:23;;;;;;;1.13;0.80;;;2.70;69.00;;;;;;4990306;28;20727;-72
2022/01/22 12:46:50;;;;;;;2.38;0.65;;;2.70;68.40;;;;;;5001259;28;20038;-75
2022/01/22 12:49:16;;;;;;;0.80;0.70;;;2.70;69.60;;;;;;5001133;28;20129;-72
2022/01/22 12:51:42;;;;;;;1.45;0.73;;;2.70;68.00;;;;;;5004791;28;20033;-73
2022/01/22 12:54:08;;;;;;;1.67;0.82;;;2.70;67.90;;;;;;5000985;28;20063;-72
2022/01/22 12:59:08;;;;;;;1.73;0.80;;;2.60;67.00;;;;;;5002187;28;20049;-72
2022/01/22 13:01:35;;;;;;;2.13;1.92;;;2.70;66.80;;;;;;5002351;28;20125;-73
2022/01/22 13:04:06;;;;;;;1.65;1.08;;;2.70;67.20;;;;;;5000262;28;20125;-73
2022/01/22 13:06:43;;;;;;;1.25;0.68;;;2.80;65.60;;;;;;5002315;28;20035;-72
2022/01/22 13:09:11;;;;;;;1.25;0.80;;;2.70;64.40;;;;;;5002287;28;20033;-74
2022/01/22 13:11:45;;;;;;;1.70;0.82;;;2.80;66.90;;;;;;5004086;28;20499;-72
2022/01/22 13:14:12;;;;;;;1.27;0.73;;;2.80;66.00;;;;;;4999691;28;20707;-73
2022/01/22 13:16:48;;;;;;;1.10;0.57;;;2.80;65.70;;;;;;5000793;28;20472;-72
2022/01/22 13:19:14;;;;;;;2.10;1.10;;;2.80;67.70;;;;;;5001821;28;20065;-74
2022/01/22 13:21:49;;;;;;;1.80;1.10;;;2.90;68.40;;;;;;5000038;28;20105;-72
2022/01/22 13:24:15;;;;;;;3.75;1.33;;;3.00;66.50;;;;;;4999059;28;20034;-74
2022/01/22 13:26:45;;;;;;;3.17;2.17;;;3.00;63.10;;;;;;5000084;28;20081;-74
2022/01/22 13:29:39;;;;;;;4.30;1.38;;;3.10;63.90;;;;;;4998595;28;20108;-71
2022/01/22 13:32:14;;;;;;;4.25;1.67;;;3.20;65.00;;;;;;4999078;28;20073;-72
2022/01/22 13:35:18;;;;;;;3.22;1.67;;;3.20;62.50;;;;;;5004735;28;20030;-74
2022/01/22 13:38:21;;;;;;;;;;;3.20;64.00;;;;;;5003099;28;20029;-73
2022/01/22 13:49:26;;;;;;;1.48;1.08;;;3.70;62.00;;;;;;5000250;28;20635;-74
2022/01/22 13:51:58;;;;;;;3.50;1.70;;;3.70;60.70;;;;;;4997882;28;20080;-73
2022/01/22 13:54:33;;;;;;;3.70;1.02;;;3.90;61.80;;;;;;5001082;28;20088;-73
2022/01/22 13:57:07;;;;;;;2.78;1.40;;;4.70;60.40;;;;;;5000304;28;20049;-75
2022/01/22 13:59:38;;;;;;;2.72;1.77;;;5.30;59.30;;;;;;5014030;28;20602;-74
2022/01/22 14:02:11;;;;;;;2.20;1.60;;;6.10;57.70;;;;;;5002037;28;20037;-75
2022/01/22 14:04:49;;;;;;;2.13;1.48;;;6.70;55.20;;;;;;5001414;28;20455;-77
2022/01/22 14:07:14;;;;;;;2.72;2.10;;;7.50;53.10;;;;;;5003212;28;20558;-74
2022/01/22 14:09:51;;;;;;;2.17;1.67;;;8.20;52.80;;;;;;5000223;28;20105;-75
2022/01/22 14:12:17;;;;;;;1.67;1.50;;;8.70;49.90;;;;;;5000610;28;20029;-74
2022/01/22 14:15:01;;;;;;;2.83;1.70;;;8.70;48.70;;;;;;5002199;28;20026;-74
2022/01/22 14:17:31;;;;;;;2.95;2.08;;;8.80;48.10;;;;;;5001077;28;20034;-74
2022/01/22 14:20:05;;;;;;;2.55;1.70;;;8.40;48.50;;;;;;5002077;28;20420;-75
2022/01/22 14:22:59;;;;;;;3.65;2.40;;;8.10;48.30;;;;;;4999533;28;20026;-73
2022/01/22 14:25:25;;;;;;;4.20;3.13;;;8.30;47.80;;;;;;5001458;28;20088;-75
2022/01/22 14:27:59;;;;;;;4.10;2.13;;;8.20;46.40;;;;;;4999780;28;20044;-74
2022/01/22 14:30:39;;;;;;;3.30;1.88;;;7.50;47.60;;;;;;5001900;28;22044;-74
2022/01/22 14:33:06;;;;;;;3.65;2.50;;;6.60;48.10;;;;;;5002429;28;20037;-73
2022/01/22 14:35:32;;;;;;;7.07;3.97;;;6.10;49.90;;;;;;5000373;28;20037;-74
2022/01/22 14:38:35;;;;;;;7.32;5.60;;;5.40;50.70;;;;;;5000481;28;20149;-73
2022/01/22 14:46:23;;;;;;;3.45;2.20;;;3.90;67.80;;;;;;4999772;28;20040;-75
2022/01/22 14:48:50;;;;;;;3.65;2.15;;;3.60;69.30;;;;;;5003523;28;20030;-74
2022/01/22 14:51:15;;;;;;;3.97;1.60;;;3.10;60.20;;;;;;5000933;28;20592;-65
2022/01/22 14:53:41;;;;;;;3.63;1.70;;;2.90;63.20;;;;;;5002306;28;20057;-67
2022/01/22 14:56:07;;;;;;;2.28;1.77;;;2.60;60.30;;;;;;5014620;28;20036;-71
2022/01/22 14:58:32;;;;;;;2.45;1.60;;;2.50;61.90;;;;;;5002111;28;20030;-72
2022/01/22 15:00:58;;;;;;;2.20;1.50;;;2.30;62.20;;;;;;5000249;28;20041;-71
2022/01/22 15:03:24;;;;;;;2.78;1.60;;;2.30;62.70;;;;;;5002946;28;20038;-71
2022/01/22 15:05:49;;;;;;;2.10;1.50;;;2.30;64.60;;;;;;5002498;28;20022;-71
2022/01/22 15:08:15;;;;;;;3.30;1.50;;;2.30;64.50;;;;;;5003124;28;20058;-71
2022/01/22 15:10:40;;;;;;;1.90;1.55;;;2.30;64.10;;;;;;5002697;28;20026;-72
2022/01/22 15:13:06;;;;;;;2.65;1.48;;;2.10;65.10;;;;;;4999271;28;20041;-73
2022/01/22 15:15:40;;;;;;;2.38;1.33;;;1.80;65.30;;;;;;5004971;28;20045;-73
2022/01/22 15:18:13;;;;;;;1.90;1.25;;;1.70;65.00;;;;;;5001754;28;20497;-71
2022/01/22 15:20:40;;;;;;;1.30;1.20;;;1.60;65.40;;;;;;5002613;28;20044;-72
2022/01/22 15:23:05;;;;;;;1.20;0.90;;;1.40;64.80;;;;;;5003119;28;20567;-71